createdAt,value
2018-01-21T00:00:33.771Z,997.80
2018-01-21T00:01:33.632Z,997.83
2018-01-21T00:02:33.785Z,997.87
2018-01-21T00:03:33.634Z,997.88
2018-01-21T00:04:33.637Z,997.87
2018-01-21T00:05:33.813Z,997.89
2018-01-21T00:06:33.638Z,997.91
2018-01-21T00:07:33.826Z,997.87
2018-01-21T00:08:33.660Z,997.90
2018-01-21T00:09:33.833Z,998.00
2018-01-21T00:10:33.652Z,997.99
2018-01-21T00:11:33.854Z,997.97
2018-01-21T00:12:33.670Z,997.98
2018-01-21T00:13:33.859Z,998.03
2018-01-21T00:14:33.670Z,997.98
2018-01-21T00:15:38.478Z,998.01
2018-01-21T00:16:33.691Z,998.03
2018-01-21T00:17:34.812Z,998.06
2018-01-21T00:18:33.685Z,998.08
2018-01-21T00:19:33.903Z,998.07
2018-01-21T00:20:33.694Z,998.10
2018-01-21T00:21:33.816Z,998.16
2018-01-21T00:22:33.689Z,998.16
2018-01-21T00:23:33.829Z,998.19
2018-01-21T00:24:33.736Z,998.24
2018-01-21T00:25:34.868Z,998.22
2018-01-21T00:26:33.700Z,998.21
2018-01-21T00:27:33.866Z,998.28
2018-01-21T00:28:33.733Z,998.30
2018-01-21T00:29:33.867Z,998.32
2018-01-21T00:30:33.721Z,998.40
2018-01-21T00:31:33.877Z,998.43
2018-01-21T00:32:33.741Z,998.43
2018-01-21T00:33:33.800Z,998.46
2018-01-21T00:34:33.733Z,998.50
2018-01-21T00:35:33.807Z,998.43
2018-01-21T00:36:33.738Z,998.50
2018-01-21T00:37:34.848Z,998.46
2018-01-21T00:38:33.742Z,998.50
2018-01-21T00:39:33.752Z,998.54
2018-01-21T00:40:33.840Z,998.54
2018-01-21T00:41:33.754Z,998.50
2018-01-21T00:42:34.886Z,998.50
2018-01-21T00:43:33.765Z,998.52
2018-01-21T00:44:33.870Z,998.53
2018-01-21T00:45:33.774Z,998.57
2018-01-21T00:46:33.887Z,998.54
2018-01-21T00:47:33.769Z,998.52
2018-01-21T00:48:33.900Z,998.50
2018-01-21T00:49:33.775Z,998.59
2018-01-21T00:50:33.912Z,998.60
2018-01-21T00:51:33.781Z,998.66
2018-01-21T00:52:33.838Z,998.69
2018-01-21T00:53:34.851Z,998.70
2018-01-21T00:54:33.798Z,998.74
2018-01-21T00:55:33.840Z,998.77
2018-01-21T00:56:33.809Z,998.84
2018-01-21T00:57:38.880Z,998.88
2018-01-21T00:58:33.812Z,998.91
2018-01-21T00:59:34.781Z,998.89
2018-01-21T01:00:33.877Z,998.97
2018-01-21T01:01:33.817Z,998.98
2018-01-21T01:02:34.914Z,998.96
2018-01-21T01:03:33.827Z,999.00
2018-01-21T01:04:33.840Z,999.05
2018-01-21T01:05:33.907Z,999.00
2018-01-21T01:06:33.851Z,999.03
2018-01-21T01:07:33.920Z,999.09
2018-01-21T01:08:33.863Z,999.12
2018-01-21T01:09:33.868Z,999.10
2018-01-21T01:10:33.939Z,999.11
2018-01-21T01:11:33.852Z,999.13
2018-01-21T01:12:33.859Z,999.16
2018-01-21T01:13:34.985Z,999.17
2018-01-21T01:14:33.880Z,999.19
2018-01-21T01:15:33.983Z,999.19
2018-01-21T01:16:33.862Z,999.24
2018-01-21T01:17:34.910Z,999.27
2018-01-21T01:18:33.883Z,999.25
2018-01-21T01:19:34.005Z,999.25
2018-01-21T01:20:33.960Z,999.33
2018-01-21T01:21:34.015Z,999.36
2018-01-21T01:22:33.878Z,999.34
2018-01-21T01:23:33.930Z,999.36
2018-01-21T01:24:33.912Z,999.35
2018-01-21T01:25:33.943Z,999.31
2018-01-21T01:26:33.893Z,999.28
2018-01-21T01:27:33.958Z,999.35
2018-01-21T01:28:33.902Z,999.41
2018-01-21T01:29:33.908Z,999.42
2018-01-21T01:30:33.987Z,999.46
2018-01-21T01:31:33.919Z,999.48
2018-01-21T01:32:33.920Z,999.53
2018-01-21T01:33:35.026Z,999.52
2018-01-21T01:34:33.931Z,999.53
2018-01-21T01:35:35.038Z,999.57
2018-01-21T01:36:33.936Z,999.53
2018-01-21T01:37:34.022Z,999.56
2018-01-21T01:38:33.929Z,999.59
2018-01-21T01:39:33.944Z,999.66
2018-01-21T01:40:34.051Z,999.67
2018-01-21T01:41:33.943Z,999.75
2018-01-21T01:42:34.060Z,999.73
2018-01-21T01:43:33.941Z,999.73
2018-01-21T01:44:33.955Z,999.76
2018-01-21T01:45:34.102Z,999.76
2018-01-21T01:46:33.957Z,999.81
2018-01-21T01:47:34.094Z,999.77
2018-01-21T01:48:33.977Z,999.82
2018-01-21T01:49:34.111Z,999.85
2018-01-21T01:50:33.969Z,999.85
2018-01-21T01:51:34.034Z,999.85
2018-01-21T01:52:33.986Z,999.86
2018-01-21T01:53:34.030Z,999.90
2018-01-21T01:54:33.986Z,999.97
2018-01-21T01:55:34.047Z,999.91
2018-01-21T01:56:33.988Z,999.96
2018-01-21T01:57:34.070Z,999.99
2018-01-21T01:58:33.997Z,1000.06
2018-01-21T01:59:35.095Z,1000.07
2018-01-21T02:00:34.007Z,1000.06
2018-01-21T02:01:34.085Z,1000.11
2018-01-21T02:02:34.009Z,1000.16
2018-01-21T02:03:34.099Z,1000.18
2018-01-21T02:04:34.020Z,1000.16
2018-01-21T02:05:34.074Z,1000.22
2018-01-21T02:06:34.026Z,1000.19
2018-01-21T02:07:34.139Z,1000.25
2018-01-21T02:08:34.031Z,1000.27
2018-01-21T02:09:34.034Z,1000.26
2018-01-21T02:10:34.154Z,1000.32
2018-01-21T02:11:34.037Z,1000.38
2018-01-21T02:12:34.033Z,1000.41
2018-01-21T02:13:34.171Z,1000.38
2018-01-21T02:14:34.063Z,1000.43
2018-01-21T02:15:34.180Z,1000.40
2018-01-21T02:16:34.046Z,1000.34
2018-01-21T02:17:34.200Z,1000.32
2018-01-21T02:18:34.059Z,1000.39
2018-01-21T02:19:35.130Z,1000.36
2018-01-21T02:20:34.069Z,1000.46
2018-01-21T02:21:34.235Z,1000.48
2018-01-21T02:22:34.069Z,1000.49
2018-01-21T02:23:34.241Z,1000.46
2018-01-21T02:24:34.082Z,1000.48
2018-01-21T02:25:34.097Z,1000.47
2018-01-21T02:26:34.152Z,1000.49
2018-01-21T02:27:34.112Z,1000.53
2018-01-21T02:28:34.168Z,1000.54
2018-01-21T02:29:34.130Z,1000.58
2018-01-21T02:30:34.186Z,1000.68
2018-01-21T02:31:34.107Z,1000.61
2018-01-21T02:32:34.111Z,1000.65
2018-01-21T02:33:34.207Z,1000.71
2018-01-21T02:34:34.115Z,1000.77
2018-01-21T02:35:34.216Z,1000.74
2018-01-21T02:36:34.114Z,1000.79
2018-01-21T02:37:34.233Z,1000.75
2018-01-21T02:38:34.149Z,1000.77
2018-01-21T02:39:34.156Z,1000.78
2018-01-21T02:40:34.248Z,1000.73
2018-01-21T02:41:34.132Z,1000.80
2018-01-21T02:42:34.266Z,1000.79
2018-01-21T02:43:34.129Z,1000.82
2018-01-21T02:44:34.146Z,1000.85
2018-01-21T02:45:36.235Z,1000.85
2018-01-21T02:46:34.139Z,1000.83
2018-01-21T02:47:34.342Z,1000.88
2018-01-21T02:48:34.150Z,1000.91
2018-01-21T02:49:34.159Z,1000.95
2018-01-21T02:50:34.318Z,1000.95
2018-01-21T02:51:34.152Z,1000.97
2018-01-21T02:52:34.167Z,1000.97
2018-01-21T02:53:34.352Z,1000.97
2018-01-21T02:54:34.175Z,1000.99
2018-01-21T02:55:34.248Z,1000.99
2018-01-21T02:56:34.169Z,1000.96
2018-01-21T02:57:35.286Z,1001.01
2018-01-21T02:58:34.180Z,1001.08
2018-01-21T02:59:34.181Z,1001.01
2018-01-21T03:00:34.305Z,1001.07
2018-01-21T03:01:34.191Z,1001.09
2018-01-21T03:02:34.302Z,1001.08
2018-01-21T03:03:34.196Z,1001.09
2018-01-21T03:04:34.314Z,1001.08
2018-01-21T03:05:34.204Z,1001.11
2018-01-21T03:06:34.332Z,1001.12
2018-01-21T03:07:34.203Z,1001.18
2018-01-21T03:08:34.337Z,1001.17
2018-01-21T03:09:34.212Z,1001.19
2018-01-21T03:10:34.348Z,1001.18
2018-01-21T03:11:34.212Z,1001.20
2018-01-21T03:12:34.224Z,1001.27
2018-01-21T03:13:35.398Z,1001.25
2018-01-21T03:14:34.246Z,1001.29
2018-01-21T03:15:34.389Z,1001.33
2018-01-21T03:16:34.239Z,1001.38
2018-01-21T03:17:34.399Z,1001.32
2018-01-21T03:18:34.255Z,1001.37
2018-01-21T03:19:34.244Z,1001.37
2018-01-21T03:20:34.415Z,1001.40
2018-01-21T03:21:34.264Z,1001.43
2018-01-21T03:22:34.327Z,1001.42
2018-01-21T03:23:34.279Z,1001.42
2018-01-21T03:24:34.268Z,1001.43
2018-01-21T03:25:34.367Z,1001.45
2018-01-21T03:26:34.260Z,1001.44
2018-01-21T03:27:34.363Z,1001.48
2018-01-21T03:28:34.275Z,1001.57
2018-01-21T03:29:34.271Z,1001.59
2018-01-21T03:30:34.389Z,1001.59
2018-01-21T03:31:34.284Z,1001.64
2018-01-21T03:32:34.295Z,1001.61
2018-01-21T03:33:34.404Z,1001.67
2018-01-21T03:34:34.297Z,1001.76
2018-01-21T03:35:34.436Z,1001.74
2018-01-21T03:36:34.295Z,1001.71
2018-01-21T03:37:34.436Z,1001.79
2018-01-21T03:38:34.326Z,1001.75
2018-01-21T03:39:34.339Z,1001.78
2018-01-21T03:40:34.452Z,1001.77
2018-01-21T03:41:34.320Z,1001.75
2018-01-21T03:42:34.471Z,1001.79
2018-01-21T03:43:34.318Z,1001.85
2018-01-21T03:44:35.507Z,1001.89
2018-01-21T03:45:34.326Z,1001.85
2018-01-21T03:46:34.494Z,1001.90
2018-01-21T03:47:34.325Z,1001.97
2018-01-21T03:48:34.515Z,1001.91
2018-01-21T03:49:34.341Z,1001.97
2018-01-21T03:50:34.531Z,1002.01
2018-01-21T03:51:34.335Z,1002.04
2018-01-21T03:52:34.341Z,1002.07
2018-01-21T03:53:34.445Z,1002.10
2018-01-21T03:54:34.360Z,1002.11
2018-01-21T03:55:34.448Z,1002.10
2018-01-21T03:56:34.356Z,1002.10
2018-01-21T03:57:34.462Z,1002.18
2018-01-21T03:58:34.358Z,1002.19
2018-01-21T03:59:34.371Z,1002.22
2018-01-21T04:00:34.491Z,1002.28
2018-01-21T04:01:34.366Z,1002.28
2018-01-21T04:02:34.506Z,1002.32
2018-01-21T04:03:34.390Z,1002.30
2018-01-21T04:04:34.518Z,1002.25
2018-01-21T04:05:34.381Z,1002.28
2018-01-21T04:06:34.532Z,1002.23
2018-01-21T04:07:34.393Z,1002.22
2018-01-21T04:08:34.546Z,1002.22
2018-01-21T04:09:34.394Z,1002.26
2018-01-21T04:10:35.574Z,1002.32
2018-01-21T04:11:34.396Z,1002.27
2018-01-21T04:12:34.405Z,1002.26
2018-01-21T04:13:34.591Z,1002.28
2018-01-21T04:14:34.407Z,1002.28
2018-01-21T04:15:34.588Z,1002.31
2018-01-21T04:16:34.411Z,1002.34
2018-01-21T04:17:34.622Z,1002.35
2018-01-21T04:18:34.414Z,1002.40
2018-01-21T04:19:34.620Z,1002.37
2018-01-21T04:20:34.429Z,1002.44
2018-01-21T04:21:34.630Z,1002.41
2018-01-21T04:22:34.432Z,1002.47
2018-01-21T04:23:34.542Z,1002.47
2018-01-21T04:24:34.455Z,1002.50
2018-01-21T04:25:35.585Z,1002.54
2018-01-21T04:26:34.442Z,1002.57
2018-01-21T04:27:34.573Z,1002.53
2018-01-21T04:28:34.458Z,1002.52
2018-01-21T04:29:34.464Z,1002.52
2018-01-21T04:30:34.607Z,1002.52
2018-01-21T04:31:34.464Z,1002.56
2018-01-21T04:32:34.605Z,1002.54
2018-01-21T04:33:34.465Z,1002.60
2018-01-21T04:34:34.641Z,1002.62
2018-01-21T04:35:34.458Z,1002.66
2018-01-21T04:36:34.637Z,1002.71
2018-01-21T04:37:34.468Z,1002.75
2018-01-21T04:38:34.655Z,1002.71
2018-01-21T04:39:34.487Z,1002.76
2018-01-21T04:40:34.665Z,1002.82
2018-01-21T04:41:34.486Z,1002.83
2018-01-21T04:42:34.669Z,1002.84
2018-01-21T04:43:34.482Z,1002.91
2018-01-21T04:44:34.489Z,1002.90
2018-01-21T04:45:34.690Z,1002.94
2018-01-21T04:46:34.509Z,1002.98
2018-01-21T04:47:34.698Z,1003.10
2018-01-21T04:48:34.512Z,1003.07
2018-01-21T04:49:34.509Z,1003.03
2018-01-21T04:50:34.619Z,1003.11
2018-01-21T04:51:34.513Z,1003.10
2018-01-21T04:52:34.516Z,1003.07
2018-01-21T04:53:34.646Z,1003.12
2018-01-21T04:54:34.517Z,1003.16
2018-01-21T04:55:34.675Z,1003.13
2018-01-21T04:56:34.531Z,1003.20
2018-01-21T04:57:34.675Z,1003.25
2018-01-21T04:58:34.538Z,1003.22
2018-01-21T04:59:34.574Z,1003.26
2018-01-21T05:00:34.689Z,1003.22
2018-01-21T05:01:34.536Z,1003.26
2018-01-21T05:02:34.592Z,1003.31
2018-01-21T05:03:34.542Z,1003.26
2018-01-21T05:04:34.604Z,1003.28
2018-01-21T05:05:34.554Z,1003.30
2018-01-21T05:06:35.649Z,1003.28
2018-01-21T05:07:34.561Z,1003.31
2018-01-21T05:08:34.633Z,1003.38
2018-01-21T05:09:34.562Z,1003.31
2018-01-21T05:10:34.645Z,1003.30
2018-01-21T05:11:34.574Z,1003.33
2018-01-21T05:12:34.590Z,1003.37
2018-01-21T05:13:34.672Z,1003.32
2018-01-21T05:14:34.585Z,1003.38
2018-01-21T05:15:34.572Z,1003.36
2018-01-21T05:16:34.580Z,1003.37
2018-01-21T05:17:34.719Z,1003.37
2018-01-21T05:18:34.584Z,1003.38
2018-01-21T05:19:34.597Z,1003.45
2018-01-21T05:20:34.614Z,1003.42
2018-01-21T05:21:34.588Z,1003.43
2018-01-21T05:22:34.617Z,1003.44
2018-01-21T05:23:34.612Z,1003.49
2018-01-21T05:24:35.657Z,1003.47
2018-01-21T05:25:34.610Z,1003.49
2018-01-21T05:26:35.685Z,1003.48
2018-01-21T05:27:34.623Z,1003.46
2018-01-21T05:28:34.660Z,1003.51
2018-01-21T05:29:34.634Z,1003.46
2018-01-21T05:30:34.620Z,1003.42
2018-01-21T05:31:34.625Z,1003.45
2018-01-21T05:32:34.634Z,1003.50
2018-01-21T05:33:34.717Z,1003.49
2018-01-21T05:34:34.640Z,1003.54
2018-01-21T05:35:34.707Z,1003.51
2018-01-21T05:36:34.636Z,1003.53
2018-01-21T05:37:34.712Z,1003.57
2018-01-21T05:38:34.645Z,1003.57
2018-01-21T05:39:34.733Z,1003.56
2018-01-21T05:40:34.645Z,1003.59
2018-01-21T05:41:34.745Z,1003.64
2018-01-21T05:42:34.654Z,1003.65
2018-01-21T05:43:34.758Z,1003.71
2018-01-21T05:44:34.662Z,1003.72
2018-01-21T05:45:34.797Z,1003.72
2018-01-21T05:46:34.662Z,1003.74
2018-01-21T05:47:34.678Z,1003.76
2018-01-21T05:48:34.682Z,1003.71
2018-01-21T05:49:35.718Z,1003.73
2018-01-21T05:50:34.706Z,1003.75
2018-01-21T05:51:34.722Z,1003.74
2018-01-21T05:52:34.705Z,1003.77
2018-01-21T05:53:34.713Z,1003.74
2018-01-21T05:54:34.724Z,1003.76
2018-01-21T05:55:34.739Z,1003.78
2018-01-21T05:56:34.700Z,1003.79
2018-01-21T05:57:34.697Z,1003.84
2018-01-21T05:58:34.748Z,1003.87
2018-01-21T05:59:34.713Z,1003.85
2018-01-21T06:00:34.762Z,1003.89
2018-01-21T06:01:34.704Z,1003.89
2018-01-21T06:02:34.786Z,1003.93
2018-01-21T06:03:34.705Z,1003.94
2018-01-21T06:04:35.818Z,1003.89
2018-01-21T06:05:34.717Z,1003.95
2018-01-21T06:06:34.802Z,1003.95
2018-01-21T06:07:34.725Z,1003.93
2018-01-21T06:08:34.818Z,1003.99
2018-01-21T06:09:34.728Z,1003.97
2018-01-21T06:10:34.826Z,1003.97
2018-01-21T06:11:34.757Z,1004.08
2018-01-21T06:12:34.737Z,1004.04
2018-01-21T06:13:34.843Z,1004.08
2018-01-21T06:14:34.739Z,1004.06
2018-01-21T06:15:35.792Z,1004.09
2018-01-21T06:16:34.742Z,1004.18
2018-01-21T06:17:34.772Z,1004.13
2018-01-21T06:18:34.752Z,1004.20
2018-01-21T06:19:34.762Z,1004.21
2018-01-21T06:20:34.827Z,1004.22
2018-01-21T06:21:34.768Z,1004.26
2018-01-21T06:22:34.802Z,1004.27
2018-01-21T06:23:34.766Z,1004.34
2018-01-21T06:24:34.778Z,1004.37
2018-01-21T06:25:35.852Z,1004.37
2018-01-21T06:26:34.769Z,1004.41
2018-01-21T06:27:34.835Z,1004.43
2018-01-21T06:28:34.788Z,1004.48
2018-01-21T06:29:34.849Z,1004.52
2018-01-21T06:30:34.781Z,1004.53
2018-01-21T06:31:34.860Z,1004.60
2018-01-21T06:32:34.789Z,1004.64
2018-01-21T06:33:35.901Z,1004.62
2018-01-21T06:34:34.826Z,1004.67
2018-01-21T06:35:34.790Z,1004.70
2018-01-21T06:36:34.887Z,1004.70
2018-01-21T06:37:34.830Z,1004.72
2018-01-21T06:38:35.825Z,1004.67
2018-01-21T06:39:34.804Z,1004.69
2018-01-21T06:40:35.842Z,1004.74
2018-01-21T06:41:34.811Z,1004.76
2018-01-21T06:42:35.849Z,1004.73
2018-01-21T06:43:34.819Z,1004.72
2018-01-21T06:44:34.825Z,1004.75
2018-01-21T06:45:34.849Z,1004.77
2018-01-21T06:46:34.820Z,1004.77
2018-01-21T06:47:34.862Z,1004.81
2018-01-21T06:48:34.828Z,1004.88
2018-01-21T06:49:34.839Z,1004.85
2018-01-21T06:50:34.831Z,1004.85
2018-01-21T06:51:34.863Z,1004.89
2018-01-21T06:52:34.868Z,1004.98
2018-01-21T06:53:34.903Z,1005.02
2018-01-21T06:54:34.859Z,1005.01
2018-01-21T06:55:34.913Z,1005.00
2018-01-21T06:56:34.853Z,1005.07
2018-01-21T06:57:34.931Z,1005.08
2018-01-21T06:58:34.854Z,1005.07
2018-01-21T06:59:34.863Z,1005.10
2018-01-21T07:00:34.944Z,1005.13
2018-01-21T07:01:34.857Z,1005.16
2018-01-21T07:02:34.967Z,1005.21
2018-01-21T07:03:34.891Z,1005.19
2018-01-21T07:04:34.976Z,1005.20
2018-01-21T07:05:34.880Z,1005.22
2018-01-21T07:06:34.988Z,1005.22
2018-01-21T07:07:34.899Z,1005.23
2018-01-21T07:08:36.940Z,1005.31
2018-01-21T07:09:34.893Z,1005.33
2018-01-21T07:10:34.902Z,1005.36
2018-01-21T07:11:34.888Z,1005.39
2018-01-21T07:12:35.941Z,1005.42
2018-01-21T07:13:34.901Z,1005.48
2018-01-21T07:14:34.918Z,1005.51
2018-01-21T07:15:34.949Z,1005.51
2018-01-21T07:16:34.899Z,1005.44
2018-01-21T07:17:34.983Z,1005.51
2018-01-21T07:18:34.920Z,1005.56
2018-01-21T07:19:34.912Z,1005.61
2018-01-21T07:20:34.915Z,1005.54
2018-01-21T07:21:34.974Z,1005.68
2018-01-21T07:22:34.922Z,1005.62
2018-01-21T07:23:34.986Z,1005.59
2018-01-21T07:24:34.928Z,1005.60
2018-01-21T07:25:34.999Z,1005.59
2018-01-21T07:26:34.929Z,1005.62
2018-01-21T07:27:35.016Z,1005.62
2018-01-21T07:28:34.930Z,1005.69
2018-01-21T07:29:34.936Z,1005.68
2018-01-21T07:30:35.030Z,1005.72
2018-01-21T07:31:34.945Z,1005.77
2018-01-21T07:32:34.958Z,1005.81
2018-01-21T07:33:35.059Z,1005.84
2018-01-21T07:34:34.952Z,1005.91
2018-01-21T07:35:34.963Z,1005.89
2018-01-21T07:36:34.968Z,1005.89
2018-01-21T07:37:34.955Z,1005.95
2018-01-21T07:38:34.986Z,1005.97
2018-01-21T07:39:34.969Z,1005.99
2018-01-21T07:40:34.994Z,1005.98
2018-01-21T07:41:34.974Z,1005.98
2018-01-21T07:42:35.012Z,1006.01
2018-01-21T07:43:34.975Z,1006.01
2018-01-21T07:44:34.993Z,1006.06
2018-01-21T07:45:35.040Z,1006.10
2018-01-21T07:46:34.990Z,1006.08
2018-01-21T07:47:35.043Z,1006.11
2018-01-21T07:48:34.995Z,1006.16
2018-01-21T07:49:35.052Z,1006.17
2018-01-21T07:50:35.011Z,1006.20
2018-01-21T07:51:35.082Z,1006.22
2018-01-21T07:52:34.993Z,1006.22
2018-01-21T07:53:35.081Z,1006.22
2018-01-21T07:54:35.008Z,1006.23
2018-01-21T07:55:35.124Z,1006.32
2018-01-21T07:56:35.016Z,1006.34
2018-01-21T07:57:37.081Z,1006.34
2018-01-21T07:58:35.010Z,1006.40
2018-01-21T07:59:36.036Z,1006.36
2018-01-21T08:00:35.020Z,1006.37
2018-01-21T08:01:39.883Z,1006.40
2018-01-21T08:02:35.043Z,1006.42
2018-01-21T08:03:35.080Z,1006.45
2018-01-21T08:04:35.033Z,1006.45
2018-01-21T08:05:35.088Z,1006.46
2018-01-21T08:06:35.034Z,1006.52
2018-01-21T08:07:36.125Z,1006.54
2018-01-21T08:08:35.037Z,1006.58
2018-01-21T08:09:35.055Z,1006.64
2018-01-21T08:10:37.170Z,1006.64
2018-01-21T08:11:35.050Z,1006.68
2018-01-21T08:12:35.053Z,1006.67
2018-01-21T08:13:37.202Z,1006.69
2018-01-21T08:14:35.078Z,1006.68
2018-01-21T08:15:41.931Z,1006.66
2018-01-21T08:16:35.059Z,1006.71
2018-01-21T08:17:35.170Z,1006.67
2018-01-21T08:18:35.058Z,1006.74
2018-01-21T08:26:10.378Z,1006.86
2018-01-21T08:27:05.759Z,1006.92
2018-01-21T08:28:11.831Z,1006.97
2018-01-21T08:29:05.798Z,1006.94
2018-01-21T08:30:10.787Z,1006.92
2018-01-21T08:31:05.787Z,1007.00
2018-01-21T08:32:10.798Z,1007.01
2018-01-21T08:33:05.770Z,1007.00
2018-01-21T08:34:05.895Z,1007.06
2018-01-21T08:35:05.760Z,1007.06
2018-01-21T08:36:06.827Z,1007.11
2018-01-21T08:37:05.765Z,1007.07
2018-01-21T08:38:05.950Z,1007.12
2018-01-21T08:39:05.779Z,1007.06
2018-01-21T08:40:10.816Z,1007.06
2018-01-21T08:41:05.802Z,1007.07
2018-01-21T08:42:10.724Z,1007.05
2018-01-21T08:43:05.814Z,1007.15
2018-01-21T08:44:07.893Z,1007.15
2018-01-21T08:45:05.810Z,1007.19
2018-01-21T08:46:05.846Z,1007.26
2018-01-21T08:47:05.797Z,1007.25
2018-01-21T08:48:05.844Z,1007.22
2018-01-21T08:49:05.807Z,1007.22
2018-01-21T08:50:05.865Z,1007.25
2018-01-21T08:51:05.806Z,1007.27
2018-01-21T08:52:16.729Z,1007.26
2018-01-21T08:53:05.826Z,1007.26
2018-01-21T08:54:12.818Z,1007.30
2018-01-21T08:55:05.830Z,1007.29
2018-01-21T08:56:11.785Z,1007.32
2018-01-21T08:57:05.832Z,1007.35
2018-01-21T09:33:41.143Z,1007.96
2018-01-21T09:34:46.190Z,1007.93
2018-01-21T09:36:54.122Z,1007.98
2018-01-21T09:37:54.107Z,1008.00
2018-01-21T09:39:47.627Z,1007.99
2018-01-21T09:40:47.353Z,1007.98
2018-01-21T09:41:47.376Z,1007.99
2018-01-21T09:42:47.371Z,1007.98
2018-01-21T09:43:47.369Z,1007.99
2018-01-21T09:44:47.432Z,1008.02
2018-01-21T09:45:47.368Z,1007.97
2018-01-21T09:46:47.450Z,1008.02
2018-01-21T09:47:47.368Z,1007.95
2018-01-21T09:48:47.526Z,1008.01
2018-01-21T09:49:48.507Z,1008.01
2018-01-21T09:50:47.471Z,1008.03
2018-01-21T09:51:47.384Z,1007.97
2018-01-21T09:52:47.493Z,1008.05
2018-01-21T09:53:47.397Z,1008.07
2018-01-21T09:54:47.451Z,1008.09
2018-01-21T09:55:47.411Z,1008.09
2018-01-21T09:56:48.436Z,1008.13
2018-01-21T09:57:47.404Z,1008.17
2018-01-21T09:58:47.803Z,1008.17
2018-01-21T09:59:47.427Z,1008.21
2018-01-21T10:00:47.436Z,1008.20
2018-01-21T10:01:47.412Z,1008.21
2018-01-21T10:02:47.446Z,1008.22
2018-01-21T10:03:47.424Z,1008.26
2018-01-21T10:04:47.422Z,1008.25
2018-01-21T10:05:47.486Z,1008.29
2018-01-21T10:06:47.471Z,1008.27
2018-01-21T10:07:47.426Z,1008.27
2018-01-21T10:08:47.432Z,1008.36
2018-01-21T10:09:47.435Z,1008.28
2018-01-21T10:10:47.501Z,1008.33
2018-01-21T10:11:47.432Z,1008.39
2018-01-21T10:12:47.443Z,1008.41
2018-01-21T10:13:47.448Z,1008.41
2018-01-21T10:14:47.514Z,1008.44
2018-01-21T10:15:47.445Z,1008.43
2018-01-21T10:16:47.456Z,1008.47
2018-01-21T10:17:47.548Z,1008.41
2018-01-21T10:18:47.466Z,1008.50
2018-01-21T10:19:47.583Z,1008.51
2018-01-21T10:20:47.459Z,1008.50
2018-01-21T10:21:48.510Z,1008.48
2018-01-21T10:22:47.471Z,1008.52
2018-01-21T10:23:48.525Z,1008.50
2018-01-21T10:24:47.474Z,1008.48
2018-01-21T10:25:47.469Z,1008.56
2018-01-21T10:26:47.507Z,1008.51
2018-01-21T10:27:47.508Z,1008.56
2018-01-21T10:28:47.516Z,1008.54
2018-01-21T10:29:47.516Z,1008.62
2018-01-21T10:30:48.562Z,1008.57
2018-01-21T10:31:47.517Z,1008.60
2018-01-21T10:32:47.547Z,1008.61
2018-01-21T10:33:47.522Z,1008.61
2018-01-21T10:34:47.574Z,1008.62
2018-01-21T10:35:47.501Z,1008.60
2018-01-21T10:36:47.590Z,1008.62
2018-01-21T10:37:47.515Z,1008.66
2018-01-21T10:38:47.593Z,1008.66
2018-01-21T10:39:47.519Z,1008.68
2018-01-21T10:40:47.599Z,1008.74
2018-01-21T10:41:47.524Z,1008.70
2018-01-21T10:42:48.645Z,1008.73
2018-01-21T10:43:47.543Z,1008.73
2018-01-21T10:44:47.631Z,1008.74
2018-01-21T10:45:47.558Z,1008.81
2018-01-21T10:46:47.654Z,1008.81
2018-01-21T10:47:47.556Z,1008.79
2018-01-21T10:48:47.664Z,1008.82
2018-01-21T10:49:47.593Z,1008.81
2018-01-21T10:50:47.571Z,1008.81
2018-01-21T10:51:47.584Z,1008.84
2018-01-21T10:52:47.597Z,1008.81
2018-01-21T10:53:47.555Z,1008.84
2018-01-21T10:54:47.595Z,1008.87
2018-01-21T10:55:47.559Z,1008.89
2018-01-21T10:56:47.689Z,1008.94
2018-01-21T10:57:47.571Z,1008.97
2018-01-21T10:58:47.640Z,1009.00
2018-01-21T10:59:47.574Z,1008.98
2018-01-21T11:00:47.632Z,1009.02
2018-01-21T11:01:47.588Z,1009.03
2018-01-21T11:02:47.654Z,1009.05
2018-01-21T11:03:47.592Z,1009.07
2018-01-21T11:04:47.589Z,1009.07
2018-01-21T11:05:47.664Z,1009.10
2018-01-21T11:06:47.611Z,1009.09
2018-01-21T11:07:47.691Z,1009.08
2018-01-21T11:08:47.604Z,1009.02
2018-01-21T11:09:47.696Z,1009.04
2018-01-21T11:10:47.601Z,1009.04
2018-01-21T11:11:47.706Z,1009.02
2018-01-21T11:12:47.611Z,1008.97
2018-01-21T11:13:47.716Z,1009.05
2018-01-21T11:14:47.609Z,1009.01
2018-01-21T11:15:48.653Z,1008.97
2018-01-21T11:16:47.616Z,1009.04
2018-01-21T11:17:47.647Z,1008.99
2018-01-21T11:18:47.646Z,1009.04
2018-01-21T11:19:47.639Z,1009.06
2018-01-21T11:20:47.642Z,1009.09
2018-01-21T11:21:47.684Z,1009.11
2018-01-21T11:22:47.692Z,1009.07
2018-01-21T11:23:47.669Z,1009.08
2018-01-21T11:24:47.712Z,1008.99
2018-01-21T11:25:47.694Z,1009.04
2018-01-21T11:26:47.707Z,1009.05
2018-01-21T11:27:47.648Z,1009.07
2018-01-21T11:28:47.784Z,1009.05
2018-01-21T11:29:47.663Z,1009.03
2018-01-21T11:30:49.785Z,1009.00
2018-01-21T11:31:47.666Z,1009.08
2018-01-21T11:32:47.759Z,1009.10
2018-01-21T11:33:47.663Z,1009.13
2018-01-21T11:34:47.682Z,1009.17
2018-01-21T11:35:47.665Z,1009.16
2018-01-21T11:36:48.701Z,1009.08
2018-01-21T11:37:47.674Z,1009.06
2018-01-21T11:38:48.720Z,1009.03
2018-01-21T11:39:47.679Z,1009.05
2018-01-21T11:40:49.800Z,1009.02
2018-01-21T11:41:47.688Z,1008.99
2018-01-21T11:42:48.739Z,1008.98
2018-01-21T11:43:47.706Z,1008.93
2018-01-21T11:44:48.758Z,1008.95
2018-01-21T11:45:47.695Z,1008.88
2018-01-21T11:46:47.751Z,1008.91
2018-01-21T11:47:47.713Z,1008.89
2018-01-21T11:48:47.714Z,1008.86
2018-01-21T11:49:47.708Z,1008.87
2018-01-21T11:50:47.772Z,1008.87
2018-01-21T11:51:47.720Z,1008.86
2018-01-21T11:52:47.784Z,1008.80
2018-01-21T11:53:47.721Z,1008.83
2018-01-21T11:54:47.794Z,1008.83
2018-01-21T11:55:47.752Z,1008.86
2018-01-21T11:56:47.866Z,1008.88
2018-01-21T11:57:47.735Z,1008.85
2018-01-21T11:58:47.849Z,1008.85
2018-01-21T11:59:47.741Z,1008.93
2018-01-21T12:00:48.767Z,1008.93
2018-01-21T12:01:47.741Z,1008.89
2018-01-21T12:02:47.858Z,1008.98
2018-01-21T12:03:47.739Z,1009.00
2018-01-21T12:04:47.795Z,1008.97
2018-01-21T12:05:47.760Z,1009.03
2018-01-21T12:06:47.776Z,1008.98
2018-01-21T12:07:47.759Z,1009.00
2018-01-21T12:08:48.824Z,1009.02
2018-01-21T12:09:47.815Z,1009.02
2018-01-21T12:10:47.823Z,1009.09
2018-01-21T12:11:47.774Z,1009.16
2018-01-21T12:12:49.864Z,1009.10
2018-01-21T12:13:47.787Z,1009.17
2018-01-21T12:14:47.824Z,1009.18
2018-01-21T12:15:47.814Z,1009.17
2018-01-21T12:16:47.794Z,1009.15
2018-01-21T12:17:47.850Z,1009.15
2018-01-21T12:18:47.790Z,1009.21
2018-01-21T12:19:47.859Z,1009.22
2018-01-21T12:20:47.793Z,1009.19
2018-01-21T12:21:47.874Z,1009.17
2018-01-21T12:22:47.802Z,1009.14
2018-01-21T12:23:47.910Z,1009.18
2018-01-21T12:24:47.844Z,1009.19
2018-01-21T12:25:47.903Z,1009.18
2018-01-21T12:26:47.872Z,1009.21
2018-01-21T12:27:47.915Z,1009.23
2018-01-21T12:28:47.822Z,1009.17
2018-01-21T12:29:47.925Z,1009.26
2018-01-21T12:30:47.822Z,1009.20
2018-01-21T12:31:47.856Z,1009.26
2018-01-21T12:32:48.961Z,1009.26
2018-01-21T12:33:48.881Z,1009.31
2018-01-21T12:34:48.957Z,1009.32
2018-01-21T12:35:49.929Z,1009.39
2018-01-21T12:36:47.902Z,1009.38
2018-01-21T12:37:48.914Z,1009.39
2018-01-21T12:38:47.869Z,1009.41
2018-01-21T12:39:52.615Z,1009.40
2018-01-21T12:40:47.857Z,1009.45
2018-01-21T12:41:47.923Z,1009.49
2018-01-21T12:42:47.884Z,1009.49
2018-01-21T12:43:47.918Z,1009.56
2018-01-21T12:44:47.880Z,1009.56
2018-01-21T12:45:47.937Z,1009.58
2018-01-21T12:46:47.880Z,1009.55
2018-01-21T12:47:47.878Z,1009.50
2018-01-21T12:48:47.969Z,1009.45
2018-01-21T12:49:47.882Z,1009.50
2018-01-21T12:50:47.977Z,1009.46
2018-01-21T12:51:47.902Z,1009.47
2018-01-21T12:52:48.903Z,1009.50
2018-01-21T12:53:47.892Z,1009.50